createdAt,value
2018-12-20T00:00:24.345Z,26.10
2018-12-20T00:01:24.461Z,25.00
2018-12-20T00:02:24.351Z,25.80
2018-12-20T00:03:24.434Z,25.00
2018-12-20T00:04:24.319Z,26.80
2018-12-20T00:05:24.287Z,27.60
2018-12-20T00:06:24.371Z,27.60
2018-12-20T00:07:24.297Z,26.50
2018-12-20T00:08:24.340Z,28.50
2018-12-20T00:09:24.292Z,29.50
2018-12-20T00:10:24.264Z,28.60
2018-12-20T00:11:24.354Z,29.30
2018-12-20T00:12:24.205Z,26.80
2018-12-20T00:13:24.205Z,31.50
2018-12-20T00:14:29.931Z,27.00
2018-12-20T00:15:25.168Z,28.40
2018-12-20T00:16:24.184Z,30.80
2018-12-20T00:17:24.159Z,29.20
2018-12-20T00:18:24.153Z,28.10
2018-12-20T00:19:24.131Z,31.90
2018-12-20T00:20:24.225Z,26.30
2018-12-20T00:21:24.217Z,25.20
2018-12-20T00:22:24.153Z,25.90
2018-12-20T00:23:24.088Z,27.20
2018-12-20T00:24:24.074Z,25.20
2018-12-20T00:25:24.079Z,25.30
2018-12-20T00:26:24.154Z,26.20
2018-12-20T00:27:24.073Z,24.40
2018-12-20T00:28:24.017Z,24.90
2018-12-20T00:29:24.084Z,26.70
2018-12-20T00:30:24.170Z,26.10
2018-12-20T00:31:24.162Z,29.40
2018-12-20T00:32:23.981Z,29.40
2018-12-20T00:33:24.012Z,26.80
2018-12-20T00:34:24.137Z,25.20
2018-12-20T00:35:24.031Z,27.30
2018-12-20T00:36:24.003Z,27.10
2018-12-20T00:37:23.937Z,26.10
2018-12-20T00:38:23.913Z,28.20
2018-12-20T00:39:23.988Z,31.70
2018-12-20T00:40:23.994Z,30.30
2018-12-20T00:41:24.063Z,27.60
2018-12-20T00:42:23.995Z,24.80
2018-12-20T00:43:23.865Z,26.00
2018-12-20T00:44:23.845Z,29.70
2018-12-20T00:45:23.945Z,28.80
2018-12-20T00:46:23.832Z,27.70
2018-12-20T00:47:23.923Z,27.50
2018-12-20T00:48:24.044Z,25.70
2018-12-20T00:49:23.803Z,28.10
2018-12-20T00:50:23.775Z,31.40
2018-12-20T00:51:23.801Z,30.90
2018-12-20T00:52:23.873Z,28.00
2018-12-20T00:53:23.764Z,30.00
2018-12-20T00:54:23.953Z,30.10
2018-12-20T00:55:23.726Z,30.10
2018-12-20T00:56:23.874Z,35.60
2018-12-20T00:57:23.729Z,29.20
2018-12-20T00:58:23.753Z,32.10
2018-12-20T00:59:23.683Z,32.10
2018-12-20T01:00:23.802Z,38.30
2018-12-20T01:01:23.773Z,30.80
2018-12-20T01:02:23.737Z,27.20
2018-12-20T01:03:23.724Z,29.60
2018-12-20T01:04:23.748Z,27.30
2018-12-20T01:05:23.844Z,27.90
2018-12-20T01:06:23.614Z,28.20
2018-12-20T01:07:23.643Z,29.10
2018-12-20T01:08:23.731Z,30.30
2018-12-20T01:09:23.585Z,34.50
2018-12-20T01:10:23.558Z,31.90
2018-12-20T01:11:23.557Z,29.10
2018-12-20T01:12:23.665Z,33.60
2018-12-20T01:13:23.557Z,29.70
2018-12-20T01:14:23.542Z,33.90
2018-12-20T01:15:23.512Z,35.60
2018-12-20T01:16:23.507Z,28.70
2018-12-20T01:17:23.567Z,28.00
2018-12-20T01:18:23.473Z,33.10
2018-12-20T01:19:23.591Z,30.50
2018-12-20T01:20:23.435Z,32.20
2018-12-20T01:21:23.508Z,33.90
2018-12-20T01:22:23.444Z,32.10
2018-12-20T01:23:23.441Z,31.20
2018-12-20T01:24:23.499Z,30.60
2018-12-20T01:25:23.544Z,30.50
2018-12-20T01:26:23.421Z,30.50
2018-12-20T01:27:23.449Z,28.20
2018-12-20T01:28:23.489Z,29.80
2018-12-20T01:29:23.389Z,31.60
2018-12-20T01:30:23.371Z,29.00
2018-12-20T01:31:23.331Z,32.00
2018-12-20T01:32:23.422Z,33.20
2018-12-20T01:33:23.338Z,29.50
2018-12-20T01:34:23.287Z,31.20
2018-12-20T01:35:23.393Z,32.50
2018-12-20T01:36:23.538Z,32.90
2018-12-20T01:37:23.251Z,34.90
2018-12-20T01:38:23.397Z,35.80
2018-12-20T01:39:23.412Z,33.20
2018-12-20T01:40:23.217Z,31.60
2018-12-20T01:41:23.271Z,28.80
2018-12-20T01:42:23.273Z,30.40
2018-12-20T01:43:23.213Z,30.10
2018-12-20T01:44:23.191Z,28.50
2018-12-20T01:45:23.162Z,30.70
2018-12-20T01:46:23.307Z,28.40
2018-12-20T01:47:23.138Z,28.80
2018-12-20T01:48:23.310Z,30.10
2018-12-20T01:49:23.122Z,30.70
2018-12-20T01:50:23.280Z,31.30
2018-12-20T01:51:23.092Z,30.10
2018-12-20T01:52:23.100Z,30.60
2018-12-20T01:53:23.083Z,30.40
2018-12-20T01:54:23.108Z,29.50
2018-12-20T01:55:23.215Z,31.80
2018-12-20T01:56:23.057Z,31.10
2018-12-20T01:57:23.204Z,29.10
2018-12-20T01:58:23.188Z,31.00
2018-12-20T01:59:23.061Z,30.50
2018-12-20T02:00:23.065Z,27.70
2018-12-20T02:01:22.992Z,33.00
2018-12-20T02:02:23.004Z,31.30
2018-12-20T02:03:23.005Z,29.30
2018-12-20T02:04:23.139Z,32.80
2018-12-20T02:05:22.954Z,32.20
2018-12-20T02:06:22.973Z,32.60
2018-12-20T02:07:23.022Z,35.90
2018-12-20T02:08:22.922Z,32.50
2018-12-20T02:09:23.025Z,30.30
2018-12-20T02:10:23.072Z,31.00
2018-12-20T02:11:22.930Z,28.20
2018-12-20T02:12:23.023Z,29.80
2018-12-20T02:13:22.971Z,32.20
2018-12-20T02:14:22.843Z,31.70
2018-12-20T02:15:22.969Z,34.40
2018-12-20T02:16:22.889Z,35.50
2018-12-20T02:17:22.812Z,31.50
2018-12-20T02:18:22.817Z,33.20
2018-12-20T02:19:22.808Z,32.80
2018-12-20T02:20:22.886Z,31.80
2018-12-20T02:21:22.832Z,36.10
2018-12-20T02:22:22.997Z,31.20
2018-12-20T02:23:22.849Z,32.20
2018-12-20T02:24:22.748Z,29.90
2018-12-20T02:25:22.789Z,36.00
2018-12-20T02:26:22.887Z,34.50
2018-12-20T02:27:22.702Z,31.40
2018-12-20T02:28:22.681Z,32.90
2018-12-20T02:29:22.673Z,33.30
2018-12-20T02:30:22.718Z,34.40
2018-12-20T02:31:22.649Z,33.80
2018-12-20T02:32:22.658Z,36.30
2018-12-20T02:33:22.819Z,34.00
2018-12-20T02:34:22.694Z,31.60
2018-12-20T02:35:22.601Z,35.10
2018-12-20T02:36:22.610Z,32.30
2018-12-20T02:37:22.855Z,30.90
2018-12-20T02:38:22.565Z,36.60
2018-12-20T02:39:22.548Z,29.10
2018-12-20T02:40:22.654Z,32.90
2018-12-20T02:41:22.779Z,34.80
2018-12-20T02:42:22.525Z,34.50
2018-12-20T02:43:22.532Z,32.70
2018-12-20T02:44:22.682Z,39.60
2018-12-20T02:45:22.684Z,36.60
2018-12-20T02:46:22.629Z,36.70
2018-12-20T02:47:22.460Z,36.90
2018-12-20T02:48:22.613Z,37.60
2018-12-20T02:49:22.439Z,33.90
2018-12-20T02:50:22.474Z,29.50
2018-12-20T02:51:22.758Z,32.00
2018-12-20T02:52:22.405Z,31.40
2018-12-20T02:53:22.452Z,38.10
2018-12-20T02:54:22.381Z,35.10
2018-12-20T02:55:22.568Z,37.30
2018-12-20T02:56:22.615Z,37.70
2018-12-20T02:57:22.565Z,38.20
2018-12-20T02:58:22.571Z,33.70
2018-12-20T02:59:22.463Z,37.70
2018-12-20T03:00:22.432Z,36.40
2018-12-20T03:01:22.408Z,35.10
2018-12-20T03:02:22.291Z,38.60
2018-12-20T03:03:22.412Z,30.00
2018-12-20T03:04:22.458Z,28.20
2018-12-20T03:05:22.272Z,34.50
2018-12-20T03:06:22.455Z,29.00
2018-12-20T03:07:22.248Z,34.50
2018-12-20T03:08:22.263Z,38.00
2018-12-20T03:09:22.388Z,35.50
2018-12-20T03:10:22.399Z,32.90
2018-12-20T03:11:22.229Z,38.50
2018-12-20T03:12:22.327Z,36.60
2018-12-20T03:13:22.184Z,30.20
2018-12-20T03:14:22.355Z,30.80
2018-12-20T03:15:22.150Z,31.70
2018-12-20T03:16:22.366Z,28.60
2018-12-20T03:17:22.169Z,31.40
2018-12-20T03:18:22.299Z,32.60
2018-12-20T03:19:22.409Z,28.60
2018-12-20T03:20:22.101Z,30.70
2018-12-20T03:21:22.167Z,34.00
2018-12-20T03:22:22.188Z,32.40
2018-12-20T03:23:22.063Z,29.00
2018-12-20T03:24:22.332Z,29.00
2018-12-20T03:25:22.205Z,31.70
2018-12-20T03:26:22.044Z,32.00
2018-12-20T03:27:22.063Z,35.30
2018-12-20T03:28:22.033Z,32.20
2018-12-20T03:29:22.230Z,32.70
2018-12-20T03:30:22.141Z,34.70
2018-12-20T03:31:21.988Z,38.20
2018-12-20T03:32:22.190Z,33.40
2018-12-20T03:33:22.004Z,32.80
2018-12-20T03:34:22.095Z,35.40
2018-12-20T03:35:22.048Z,36.00
2018-12-20T03:36:22.035Z,37.30
2018-12-20T03:37:22.009Z,36.40
2018-12-20T03:38:21.916Z,32.40
2018-12-20T03:39:22.151Z,34.60
2018-12-20T03:40:21.876Z,33.00
2018-12-20T03:41:21.882Z,30.50
2018-12-20T03:42:21.846Z,30.30
2018-12-20T03:43:21.904Z,34.40
2018-12-20T03:44:21.850Z,30.40
2018-12-20T03:45:28.637Z,30.60
2018-12-20T03:46:23.126Z,34.60
2018-12-20T03:47:21.820Z,32.20
2018-12-20T03:48:21.810Z,35.50
2018-12-20T03:49:21.890Z,31.40
2018-12-20T03:50:21.807Z,32.10
2018-12-20T03:51:21.900Z,31.10
2018-12-20T03:52:21.974Z,28.40
2018-12-20T03:53:21.939Z,30.10
2018-12-20T03:54:21.720Z,32.30
2018-12-20T03:55:21.853Z,33.90
2018-12-20T03:56:21.694Z,33.70
2018-12-20T03:57:21.915Z,31.70
2018-12-20T03:58:21.751Z,27.40
2018-12-20T03:59:22.023Z,30.70
2018-12-20T04:00:21.904Z,30.60
2018-12-20T04:01:21.630Z,35.20
2018-12-20T04:02:21.628Z,34.00
2018-12-20T04:03:21.645Z,30.80
2018-12-20T04:04:21.599Z,36.60
2018-12-20T04:05:21.858Z,31.70
2018-12-20T04:06:21.619Z,35.50
2018-12-20T04:07:21.662Z,36.20
2018-12-20T04:08:21.625Z,31.70
2018-12-20T04:09:21.813Z,31.00
2018-12-20T04:10:21.596Z,32.20
2018-12-20T04:11:21.768Z,36.30
2018-12-20T04:12:21.512Z,31.40
2018-12-20T04:13:21.637Z,31.20
2018-12-20T04:14:21.548Z,27.20
2018-12-20T04:15:21.724Z,31.80
2018-12-20T04:16:21.785Z,32.00
2018-12-20T04:17:21.461Z,36.20
2018-12-20T04:18:21.525Z,30.40
2018-12-20T04:19:21.728Z,36.90
2018-12-20T04:20:21.569Z,31.60
2018-12-20T04:21:21.405Z,28.50
2018-12-20T04:22:21.461Z,30.30
2018-12-20T04:23:21.390Z,32.10
2018-12-20T04:24:21.405Z,30.70
2018-12-20T04:25:21.415Z,28.50
2018-12-20T04:26:21.353Z,32.10
2018-12-20T04:27:21.358Z,28.60
2018-12-20T04:28:21.678Z,28.80
2018-12-20T04:29:21.363Z,31.70
2018-12-20T04:30:21.316Z,31.20
2018-12-20T04:31:21.312Z,26.60
2018-12-20T04:32:21.302Z,35.80
2018-12-20T04:33:21.680Z,29.40
2018-12-20T04:34:21.318Z,30.60
2018-12-20T04:35:21.269Z,34.10
2018-12-20T04:36:21.423Z,33.10
2018-12-20T04:37:21.381Z,34.30
2018-12-20T04:38:21.237Z,30.10
2018-12-20T04:39:21.288Z,32.60
2018-12-20T04:40:21.214Z,28.80
2018-12-20T04:41:21.184Z,33.30
2018-12-20T04:42:21.362Z,33.60
2018-12-20T04:43:21.168Z,34.40
2018-12-20T04:44:21.398Z,31.20
2018-12-20T04:45:21.204Z,29.60
2018-12-20T04:46:21.133Z,33.30
2018-12-20T04:47:21.376Z,30.70
2018-12-20T04:48:21.318Z,32.20
2018-12-20T04:49:21.098Z,26.10
2018-12-20T04:50:21.133Z,33.10
2018-12-20T04:51:21.124Z,31.50
2018-12-20T04:52:21.148Z,27.70
2018-12-20T04:53:21.057Z,28.60
2018-12-20T04:54:21.041Z,31.20
2018-12-20T04:55:21.046Z,28.70
2018-12-20T04:56:21.054Z,28.30
2018-12-20T04:57:21.016Z,29.60
2018-12-20T04:58:21.185Z,29.20
2018-12-20T04:59:21.200Z,25.70
2018-12-20T05:00:21.170Z,30.00
2018-12-20T05:01:20.979Z,26.00
2018-12-20T05:02:21.296Z,28.80
2018-12-20T05:03:20.976Z,28.70
2018-12-20T05:04:20.938Z,25.00
2018-12-20T05:05:21.195Z,24.20
2018-12-20T05:06:20.911Z,23.80
2018-12-20T05:07:21.182Z,23.00
2018-12-20T05:08:20.905Z,27.30
2018-12-20T05:09:20.931Z,24.60
2018-12-20T05:10:20.894Z,27.70
2018-12-20T05:11:20.867Z,25.80
2018-12-20T05:12:20.842Z,23.50
2018-12-20T05:13:21.035Z,24.60
2018-12-20T05:14:21.003Z,30.80
2018-12-20T05:15:20.856Z,24.70
2018-12-20T05:16:20.971Z,23.80
2018-12-20T05:17:20.798Z,21.80
2018-12-20T05:18:20.771Z,26.30
2018-12-20T05:19:21.134Z,22.90
2018-12-20T05:20:21.008Z,23.40
2018-12-20T05:21:20.793Z,22.10
2018-12-20T05:22:20.875Z,21.70
2018-12-20T05:23:20.743Z,23.30
2018-12-20T05:24:20.708Z,21.40
2018-12-20T05:25:20.702Z,22.00
2018-12-20T05:26:20.768Z,23.10
2018-12-20T05:27:20.865Z,25.30
2018-12-20T05:28:20.791Z,23.00
2018-12-20T05:29:20.685Z,23.80
2018-12-20T05:30:20.789Z,24.20
2018-12-20T05:31:20.818Z,22.80
2018-12-20T05:32:20.621Z,23.70
2018-12-20T05:33:20.773Z,22.80
2018-12-20T05:34:20.596Z,23.90
2018-12-20T05:35:20.690Z,23.10
2018-12-20T05:36:20.753Z,21.70
2018-12-20T05:37:20.714Z,21.30
2018-12-20T05:38:20.619Z,20.80
2018-12-20T05:39:20.771Z,21.00
2018-12-20T05:40:20.537Z,24.80
2018-12-20T05:41:20.512Z,22.70
2018-12-20T05:42:20.753Z,22.50
2018-12-20T05:43:20.498Z,23.90
2018-12-20T05:44:20.552Z,22.20
2018-12-20T05:45:20.480Z,21.30
2018-12-20T05:46:20.641Z,22.10
2018-12-20T05:47:20.588Z,22.30
2018-12-20T05:48:20.509Z,21.40
2018-12-20T05:49:20.437Z,24.40
2018-12-20T05:50:20.419Z,22.70
2018-12-20T05:51:20.409Z,22.70
2018-12-20T05:52:20.543Z,22.80
2018-12-20T05:53:20.418Z,22.40
2018-12-20T05:54:20.440Z,23.00
2018-12-20T05:55:20.542Z,27.60
2018-12-20T05:56:20.349Z,20.70
2018-12-20T05:57:20.352Z,23.70
2018-12-20T05:58:20.391Z,22.10
2018-12-20T05:59:20.355Z,21.60
2018-12-20T06:00:20.538Z,20.70
2018-12-20T06:01:20.300Z,26.90
2018-12-20T06:02:20.308Z,24.40
2018-12-20T06:03:20.273Z,23.90
2018-12-20T06:04:20.556Z,22.40
2018-12-20T06:05:20.313Z,19.70
2018-12-20T06:06:20.458Z,21.40
2018-12-20T06:07:20.256Z,23.00
2018-12-20T06:08:20.493Z,20.50
2018-12-20T06:09:20.273Z,19.80
2018-12-20T06:10:20.204Z,21.90
2018-12-20T06:11:20.206Z,21.10
2018-12-20T06:12:20.478Z,21.10
2018-12-20T06:13:20.183Z,21.60
2018-12-20T06:14:20.148Z,21.20
2018-12-20T06:15:20.154Z,20.00
2018-12-20T06:16:20.144Z,22.80
2018-12-20T06:17:20.480Z,21.20
2018-12-20T06:18:20.150Z,20.60
2018-12-20T06:19:20.358Z,20.30
2018-12-20T06:20:20.288Z,21.20
2018-12-20T06:21:20.157Z,21.60
2018-12-20T06:22:20.180Z,21.60
2018-12-20T06:23:20.140Z,19.60
2018-12-20T06:24:20.064Z,22.50
2018-12-20T06:25:21.395Z,21.50
2018-12-20T06:26:20.060Z,20.60
2018-12-20T06:27:19.998Z,24.80
2018-12-20T06:28:19.991Z,24.00
2018-12-20T06:29:19.976Z,20.80
2018-12-20T06:30:19.971Z,20.70
2018-12-20T06:31:19.964Z,21.60
2018-12-20T06:32:19.987Z,23.20
2018-12-20T06:33:19.932Z,22.10
2018-12-20T06:34:19.937Z,20.00
2018-12-20T06:35:19.915Z,20.80
2018-12-20T06:36:19.907Z,22.40
2018-12-20T06:37:20.009Z,20.50
2018-12-20T06:38:19.882Z,21.70
2018-12-20T06:39:19.888Z,24.10
2018-12-20T06:40:19.889Z,21.70
2018-12-20T06:41:19.847Z,20.70
2018-12-20T06:42:19.844Z,21.80
2018-12-20T06:43:19.826Z,23.70
2018-12-20T06:44:19.829Z,23.50
2018-12-20T06:45:19.808Z,21.60
2018-12-20T06:46:21.290Z,21.30
2018-12-20T06:47:19.780Z,18.90
2018-12-20T06:48:19.770Z,19.40
2018-12-20T06:49:19.769Z,21.10
2018-12-20T06:50:19.783Z,19.80
2018-12-20T06:51:19.762Z,19.90
2018-12-20T06:52:19.728Z,20.70
2018-12-20T06:53:19.729Z,19.70
2018-12-20T06:54:19.710Z,21.90
2018-12-20T06:55:19.729Z,21.20
2018-12-20T06:56:19.679Z,20.80
2018-12-20T06:57:19.670Z,19.60
2018-12-20T06:58:19.670Z,20.60
2018-12-20T06:59:19.646Z,17.60
2018-12-20T07:00:19.659Z,16.80
2018-12-20T07:01:19.631Z,20.40
2018-12-20T07:02:19.613Z,20.40
2018-12-20T07:03:19.605Z,23.80
2018-12-20T07:04:19.594Z,18.10
2018-12-20T07:05:19.588Z,17.70
2018-12-20T07:06:19.592Z,19.30
2018-12-20T07:07:19.563Z,19.60
2018-12-20T07:08:19.581Z,21.00
2018-12-20T07:09:19.540Z,19.50
2018-12-20T07:10:19.557Z,18.80
2018-12-20T07:11:19.636Z,18.70
2018-12-20T07:12:19.549Z,20.40
2018-12-20T07:13:19.508Z,19.90
2018-12-20T07:14:19.499Z,21.30
2018-12-20T07:15:19.487Z,18.70
2018-12-20T07:16:19.496Z,18.20
2018-12-20T07:17:19.472Z,19.10
2018-12-20T07:18:19.453Z,17.00
2018-12-20T07:19:19.433Z,17.80
2018-12-20T07:20:19.421Z,20.40
2018-12-20T07:21:19.417Z,16.60
2018-12-20T07:22:21.525Z,16.70
2018-12-20T07:23:19.385Z,18.70
2018-12-20T07:24:19.379Z,17.00
2018-12-20T07:25:19.356Z,18.70
2018-12-20T07:26:19.371Z,19.40
2018-12-20T07:27:19.334Z,18.10
2018-12-20T07:28:19.347Z,16.30
2018-12-20T07:29:19.312Z,18.00
2018-12-20T07:30:19.320Z,15.40
2018-12-20T07:31:19.312Z,16.70
2018-12-20T07:32:25.132Z,17.40
2018-12-20T07:33:20.290Z,16.70
2018-12-20T07:34:19.261Z,16.70
2018-12-20T07:35:19.243Z,17.40
2018-12-20T07:36:19.232Z,17.50
2018-12-20T07:37:19.227Z,18.60
2018-12-20T07:38:19.243Z,17.30
2018-12-20T07:39:19.201Z,16.40
2018-12-20T07:40:19.187Z,17.80
2018-12-20T07:41:19.195Z,18.50
2018-12-20T07:42:19.166Z,16.50
2018-12-20T07:43:19.188Z,17.00
2018-12-20T07:44:19.174Z,15.40
2018-12-20T07:45:19.161Z,16.90
2018-12-20T07:46:19.134Z,17.70
2018-12-20T07:47:19.122Z,19.80
2018-12-20T07:48:19.114Z,17.80
2018-12-20T07:49:19.154Z,15.40
2018-12-20T07:50:19.087Z,15.20
2018-12-20T07:51:19.086Z,14.50
2018-12-20T07:52:19.056Z,14.50
2018-12-20T07:53:19.070Z,17.00
2018-12-20T07:54:19.033Z,15.20
2018-12-20T07:55:19.024Z,16.20
2018-12-20T07:56:19.014Z,15.70
2018-12-20T07:57:19.005Z,17.20
2018-12-20T07:58:19.030Z,15.30
2018-12-20T07:59:23.561Z,14.70
2018-12-20T08:00:18.976Z,14.60
2018-12-20T08:01:18.960Z,16.00
2018-12-20T08:02:18.957Z,15.60
2018-12-20T08:03:18.937Z,18.00
2018-12-20T08:04:18.947Z,14.10
2018-12-20T08:05:18.946Z,14.20
2018-12-20T08:06:18.902Z,12.90
2018-12-20T08:07:18.891Z,13.40
2018-12-20T08:08:18.885Z,12.20
2018-12-20T08:09:18.905Z,14.30
2018-12-20T08:10:18.866Z,12.70
2018-12-20T08:11:18.877Z,13.10
2018-12-20T08:12:18.843Z,15.80
2018-12-20T08:13:18.831Z,13.00
2018-12-20T08:14:18.839Z,12.80
2018-12-20T08:15:18.835Z,13.10
2018-12-20T08:16:18.792Z,12.20
2018-12-20T08:17:18.780Z,12.70
2018-12-20T08:18:18.780Z,12.70
2018-12-20T08:19:18.838Z,15.80
2018-12-20T08:20:18.762Z,12.60
2018-12-20T08:21:18.738Z,10.50
2018-12-20T08:22:18.730Z,13.60
2018-12-20T08:23:18.723Z,11.90
2018-12-20T08:24:18.708Z,13.30
2018-12-20T08:25:18.750Z,11.80
2018-12-20T08:26:18.696Z,12.70
2018-12-20T08:27:18.681Z,13.80
2018-12-20T08:28:18.680Z,11.70
2018-12-20T08:29:18.692Z,11.20
2018-12-20T08:30:18.676Z,13.60
2018-12-20T08:31:18.635Z,11.60
2018-12-20T08:32:18.622Z,10.70
2018-12-20T08:33:18.625Z,11.10
2018-12-20T08:34:18.601Z,13.60
2018-12-20T08:35:18.617Z,13.70
2018-12-20T08:36:18.601Z,11.40
2018-12-20T08:37:18.556Z,11.00
2018-12-20T08:38:18.562Z,11.50
2018-12-20T08:39:18.559Z,12.20
2018-12-20T08:40:18.572Z,11.90
2018-12-20T08:41:18.546Z,13.10
2018-12-20T08:42:18.514Z,11.80
2018-12-20T08:43:18.502Z,10.20
2018-12-20T08:44:18.497Z,11.40
2018-12-20T08:45:18.486Z,11.10
2018-12-20T08:46:18.495Z,12.50
2018-12-20T08:47:18.449Z,10.30
2018-12-20T08:48:18.440Z,9.60
2018-12-20T08:49:18.431Z,11.10
2018-12-20T08:50:18.422Z,9.00
2018-12-20T08:51:18.450Z,8.40
2018-12-20T08:52:18.395Z,11.10
2018-12-20T08:53:18.389Z,10.50
2018-12-20T08:54:18.383Z,9.20
2018-12-20T08:55:18.362Z,12.30
2018-12-20T08:56:18.414Z,9.90
2018-12-20T08:57:18.338Z,7.80
2018-12-20T08:58:18.337Z,10.60
2018-12-20T08:59:18.323Z,9.30
2018-12-20T09:00:18.336Z,7.40
2018-12-20T09:01:18.315Z,10.30
2018-12-20T09:02:18.321Z,7.80
2018-12-20T09:03:18.273Z,9.40
2018-12-20T09:04:18.297Z,9.60
2018-12-20T09:05:18.272Z,9.70
2018-12-20T09:06:18.255Z,9.00
2018-12-20T09:07:18.256Z,8.90
2018-12-20T09:08:18.222Z,8.20
2018-12-20T09:09:18.210Z,9.70
2018-12-20T09:10:18.194Z,9.60
2018-12-20T09:11:18.195Z,8.70
2018-12-20T09:12:18.207Z,7.00
2018-12-20T09:13:18.162Z,7.70
2018-12-20T09:14:18.173Z,9.00
2018-12-20T09:15:18.142Z,8.00
2018-12-20T09:16:18.127Z,8.80
2018-12-20T09:17:18.133Z,7.20
2018-12-20T09:18:18.117Z,6.10
2018-12-20T09:19:18.108Z,8.60
2018-12-20T09:20:18.089Z,8.10
2018-12-20T09:21:18.073Z,7.40
2018-12-20T09:22:18.094Z,7.50
2018-12-20T09:23:18.061Z,10.20
2018-12-20T09:24:18.049Z,9.00
2018-12-20T09:25:18.035Z,8.90
2018-12-20T09:26:18.036Z,7.60
2018-12-20T09:27:18.029Z,8.60
2018-12-20T09:28:18.016Z,8.70
2018-12-20T09:29:17.992Z,8.60
2018-12-20T09:30:17.990Z,9.30
2018-12-20T09:31:17.967Z,7.30
2018-12-20T09:32:17.985Z,8.80
2018-12-20T09:33:17.967Z,9.20
2018-12-20T09:34:17.947Z,7.50
2018-12-20T09:35:17.926Z,9.10
2018-12-20T09:36:17.913Z,7.30
2018-12-20T09:37:17.910Z,6.80
2018-12-20T09:38:17.916Z,8.60
2018-12-20T09:39:17.904Z,8.20
2018-12-20T09:40:17.894Z,10.40
2018-12-20T09:41:17.881Z,7.90
2018-12-20T09:42:17.861Z,7.50
2018-12-20T09:43:17.864Z,9.30
2018-12-20T09:44:17.842Z,8.20
2018-12-20T09:45:17.824Z,6.60
2018-12-20T09:46:17.837Z,8.00
2018-12-20T09:47:17.795Z,7.30
2018-12-20T09:48:17.814Z,8.50
2018-12-20T09:49:17.787Z,7.80
2018-12-20T09:50:17.772Z,7.30
2018-12-20T09:51:17.754Z,9.00
2018-12-20T09:52:17.743Z,8.40
2018-12-20T09:53:17.758Z,8.00
2018-12-20T09:54:17.751Z,10.00
2018-12-20T09:55:17.710Z,8.50
2018-12-20T09:56:17.686Z,9.60
2018-12-20T09:57:17.680Z,8.60
2018-12-20T09:58:17.672Z,10.40
2018-12-20T09:59:17.691Z,10.10
2018-12-20T10:00:17.646Z,9.00
2018-12-20T10:01:17.645Z,9.70
2018-12-20T10:02:17.628Z,8.30
2018-12-20T10:03:17.610Z,7.10
2018-12-20T10:04:17.623Z,11.90
2018-12-20T10:05:17.649Z,8.50
2018-12-20T10:06:17.583Z,8.70
2018-12-20T10:07:17.577Z,9.90
2018-12-20T10:08:17.554Z,8.60
2018-12-20T10:09:17.567Z,8.80
2018-12-20T10:10:17.589Z,10.60
2018-12-20T10:11:17.541Z,8.90
2018-12-20T10:12:17.516Z,7.60
2018-12-20T10:13:17.508Z,8.00
2018-12-20T10:14:17.518Z,8.20
2018-12-20T10:15:17.483Z,9.10
2018-12-20T10:16:17.478Z,13.60
2018-12-20T10:17:19.921Z,9.70
2018-12-20T10:18:17.479Z,8.60
2018-12-20T10:19:17.462Z,12.20
2018-12-20T10:20:17.450Z,7.80
2018-12-20T10:21:17.437Z,6.50
2018-12-20T10:22:17.417Z,8.70
2018-12-20T10:23:17.398Z,8.10
2018-12-20T10:24:17.391Z,8.40
2018-12-20T10:25:17.403Z,10.00
2018-12-20T10:26:17.376Z,7.40
2018-12-20T10:27:17.375Z,10.50
2018-12-20T10:28:17.353Z,8.00
2018-12-20T10:29:17.346Z,8.30
2018-12-20T10:30:17.340Z,8.70
2018-12-20T10:31:17.315Z,10.20
2018-12-20T10:32:17.305Z,7.00
2018-12-20T10:33:17.812Z,9.50
2018-12-20T10:34:17.273Z,7.80
2018-12-20T10:35:17.295Z,8.30
2018-12-20T10:36:17.306Z,9.60
2018-12-20T10:37:17.246Z,10.40
2018-12-20T10:38:17.229Z,9.20
2018-12-20T10:39:17.230Z,6.90
2018-12-20T10:40:17.232Z,7.80
2018-12-20T10:41:17.199Z,7.40
2018-12-20T10:42:17.180Z,9.70
2018-12-20T10:43:17.174Z,8.20
2018-12-20T10:44:17.161Z,8.70
2018-12-20T10:45:17.213Z,9.70
2018-12-20T10:46:17.177Z,7.40
2018-12-20T10:47:17.129Z,7.90
2018-12-20T10:48:17.120Z,9.70
2018-12-20T10:49:17.114Z,9.20
2018-12-20T10:50:17.111Z,8.70
2018-12-20T10:51:17.101Z,7.90
2018-12-20T10:52:17.311Z,8.30
2018-12-20T10:53:17.067Z,7.90
2018-12-20T10:54:17.054Z,9.60
2018-12-20T10:55:17.055Z,8.20
2018-12-20T10:56:17.063Z,7.50
2018-12-20T10:57:17.018Z,9.90
2018-12-20T10:58:17.007Z,8.30
2018-12-20T10:59:16.996Z,8.70
2018-12-20T11:00:16.991Z,9.90
2018-12-20T11:01:16.997Z,9.10
2018-12-20T11:02:16.965Z,9.50
2018-12-20T11:03:16.961Z,8.50
2018-12-20T11:04:16.937Z,8.40
2018-12-20T11:05:16.937Z,7.80
2018-12-20T11:06:16.915Z,9.80
2018-12-20T11:07:16.923Z,8.60
2018-12-20T11:08:16.895Z,8.50
2018-12-20T11:09:16.883Z,5.60
2018-12-20T11:10:16.875Z,10.50
2018-12-20T11:11:16.868Z,8.40
2018-12-20T11:12:16.880Z,12.00
2018-12-20T11:13:16.844Z,7.70
2018-12-20T11:14:16.836Z,9.30
2018-12-20T11:15:16.819Z,10.80
2018-12-20T11:16:16.814Z,9.60
2018-12-20T11:17:16.824Z,7.30
2018-12-20T11:18:16.786Z,32.50
2018-12-20T11:19:16.772Z,13.60
2018-12-20T11:20:16.755Z,78.50
2018-12-20T11:21:16.752Z,10.60
2018-12-20T11:22:16.814Z,39.70
2018-12-20T11:23:16.732Z,45.20
2018-12-20T11:24:16.721Z,14.30
2018-12-20T11:25:16.739Z,42.40
2018-12-20T11:26:16.737Z,8.70
2018-12-20T11:27:16.705Z,8.70
2018-12-20T11:28:16.679Z,7.20
2018-12-20T11:29:16.663Z,8.40
2018-12-20T11:30:16.662Z,10.50
2018-12-20T11:31:16.650Z,9.80
2018-12-20T11:32:16.658Z,7.60
2018-12-20T11:33:16.616Z,8.80
2018-12-20T11:34:16.624Z,10.80
2018-12-20T11:35:16.611Z,7.60
2018-12-20T11:36:16.592Z,6.20
2018-12-20T11:37:16.610Z,7.60
2018-12-20T11:38:16.594Z,8.20
2018-12-20T11:39:16.553Z,6.50
2018-12-20T11:40:16.549Z,8.00
2018-12-20T11:41:16.541Z,7.10
2018-12-20T11:42:16.526Z,6.70
2018-12-20T11:43:16.549Z,8.30
2018-12-20T11:44:16.514Z,7.10
2018-12-20T11:45:16.498Z,8.30
2018-12-20T11:46:16.484Z,9.10
2018-12-20T11:47:16.501Z,7.90
2018-12-20T11:48:16.484Z,7.10
2018-12-20T11:49:16.446Z,7.50
2018-12-20T11:50:16.430Z,16.50
2018-12-20T11:51:16.465Z,6.50
2018-12-20T11:52:16.418Z,6.60
2018-12-20T11:53:16.507Z,7.10
2018-12-20T11:54:16.406Z,10.70
2018-12-20T11:55:16.396Z,7.60
2018-12-20T11:56:16.384Z,6.30
2018-12-20T11:57:16.363Z,6.00
2018-12-20T11:58:16.373Z,6.10
2018-12-20T11:59:16.332Z,7.20
2018-12-20T12:00:16.344Z,6.80
2018-12-20T12:01:16.314Z,7.00
2018-12-20T12:02:24.251Z,7.60
2018-12-20T12:03:17.351Z,6.30
2018-12-20T12:04:16.274Z,6.80
2018-12-20T12:05:16.275Z,6.80
2018-12-20T12:06:16.255Z,5.80
2018-12-20T12:07:16.248Z,5.00
2018-12-20T12:08:16.235Z,5.90
2018-12-20T12:09:16.249Z,5.80
2018-12-20T12:10:16.214Z,7.30
2018-12-20T12:11:16.205Z,6.50
2018-12-20T12:12:16.196Z,5.30
2018-12-20T12:13:16.181Z,6.50
2018-12-20T12:14:16.187Z,5.60
2018-12-20T12:15:16.156Z,4.40
2018-12-20T12:16:16.147Z,6.90
2018-12-20T12:17:16.138Z,6.60
2018-12-20T12:18:16.127Z,6.40
2018-12-20T12:19:16.136Z,5.20
2018-12-20T12:20:16.113Z,4.20
2018-12-20T12:21:16.087Z,5.60
2018-12-20T12:22:16.081Z,4.80
2018-12-20T12:23:16.072Z,8.20
2018-12-20T12:24:16.094Z,4.40
2018-12-20T12:25:16.044Z,6.90
2018-12-20T12:26:16.031Z,3.80
2018-12-20T12:27:16.131Z,4.10
2018-12-20T12:28:16.013Z,5.00
2018-12-20T12:29:16.036Z,4.80
2018-12-20T12:30:16.020Z,5.70
2018-12-20T12:31:15.989Z,2.80
2018-12-20T12:32:15.963Z,2.50
2018-12-20T12:33:15.963Z,2.80
2018-12-20T12:34:15.962Z,3.90
2018-12-20T12:35:15.977Z,4.00
2018-12-20T12:36:15.923Z,3.10
2018-12-20T12:37:15.918Z,4.00
2018-12-20T12:38:15.901Z,3.50
2018-12-20T12:39:15.903Z,4.50
2018-12-20T12:40:15.892Z,3.30
2018-12-20T12:41:15.869Z,5.40
2018-12-20T12:42:15.860Z,3.70
2018-12-20T12:43:15.854Z,2.70
2018-12-20T12:44:15.860Z,4.60
2018-12-20T12:45:15.860Z,3.70
2018-12-20T12:46:15.818Z,2.90
2018-12-20T12:47:15.802Z,4.70
2018-12-20T12:48:15.793Z,3.10
2018-12-20T12:49:15.783Z,3.10
2018-12-20T12:50:15.822Z,3.50
2018-12-20T12:51:15.775Z,5.50
2018-12-20T12:52:15.763Z,4.60
2018-12-20T12:53:15.743Z,4.00
2018-12-20T12:54:15.731Z,5.80
2018-12-20T12:55:15.737Z,3.90
2018-12-20T12:56:15.735Z,3.70
2018-12-20T12:57:15.692Z,7.00
2018-12-20T12:58:15.679Z,7.30
2018-12-20T12:59:15.699Z,5.30